createdAt,value
2023-02-21T00:01:27.017Z,14.57
2023-02-21T00:04:48.593Z,13.90
2023-02-21T00:08:12.866Z,17.17
2023-02-21T00:11:34.512Z,13.07
2023-02-21T00:14:56.601Z,12.87
2023-02-21T00:18:17.907Z,21.27
2023-02-21T00:21:39.867Z,13.75
2023-02-21T00:25:01.186Z,14.15
2023-02-21T00:28:22.690Z,14.93
2023-02-21T00:31:44.615Z,17.33
2023-02-21T00:35:06.276Z,18.20
2023-02-21T00:38:29.572Z,14.40
2023-02-21T00:41:51.713Z,19.13
2023-02-21T00:45:14.513Z,15.80
2023-02-21T00:48:42.678Z,16.33
2023-02-21T00:52:04.182Z,14.27
2023-02-21T00:55:26.205Z,17.77
2023-02-21T00:58:47.544Z,20.33
2023-02-21T01:02:09.229Z,20.00
2023-02-21T01:05:30.837Z,18.67
2023-02-21T01:08:53.536Z,15.57
2023-02-21T01:12:15.070Z,16.80
2023-02-21T01:15:36.569Z,16.40
2023-02-21T01:18:58.039Z,11.63
2023-02-21T01:22:21.515Z,10.40
2023-02-21T01:25:43.213Z,10.45
2023-02-21T01:29:06.718Z,13.50
2023-02-21T01:32:28.311Z,13.80
2023-02-21T01:35:49.887Z,11.27
2023-02-21T01:39:11.632Z,11.70
2023-02-21T01:42:33.171Z,14.15
2023-02-21T01:46:02.591Z,15.43
2023-02-21T01:49:34.359Z,15.48
2023-02-21T01:52:56.162Z,16.27
2023-02-21T01:56:20.874Z,17.53
2023-02-21T01:59:45.557Z,16.27
2023-02-21T02:03:25.478Z,13.90
2023-02-21T02:06:47.012Z,14.02
2023-02-21T02:10:09.110Z,13.90
2023-02-21T02:13:19.660Z,13.73
2023-02-21T02:16:45.168Z,14.15
2023-02-21T02:20:09.612Z,13.77
2023-02-21T02:23:21.730Z,12.77
2023-02-21T02:26:45.360Z,13.07
2023-02-21T02:30:08.311Z,10.27
2023-02-21T02:33:40.303Z,13.45
2023-02-21T02:36:51.348Z,14.18
2023-02-21T02:40:15.796Z,13.80
2023-02-21T02:43:31.869Z,15.60
2023-02-21T02:46:38.470Z,15.77
2023-02-21T02:49:45.345Z,15.45
2023-02-21T02:52:53.803Z,15.15
2023-02-21T02:56:06.930Z,17.20
2023-02-21T02:59:25.575Z,16.17
2023-02-21T03:02:48.521Z,17.33
2023-02-21T03:06:05.984Z,15.25
2023-02-21T03:09:20.462Z,17.23
2023-02-21T03:12:41.996Z,19.33
2023-02-21T03:16:11.522Z,19.53
2023-02-21T03:19:19.122Z,22.47
2023-02-21T03:22:27.472Z,18.05
2023-02-21T03:25:32.990Z,19.02
2023-02-21T03:28:38.773Z,19.23
2023-02-21T03:31:48.432Z,19.47
2023-02-21T03:34:51.973Z,19.83
2023-02-21T03:37:58.705Z,19.17
2023-02-21T03:41:03.158Z,19.80
2023-02-21T03:44:06.843Z,20.80
2023-02-21T03:47:12.351Z,18.53
2023-02-21T03:50:16.172Z,24.00
2023-02-21T03:53:20.588Z,23.60
2023-02-21T03:56:33.409Z,15.23
2023-02-21T04:00:06.015Z,23.35
2023-02-21T04:03:18.876Z,23.53
2023-02-21T04:06:29.088Z,25.37
2023-02-21T04:09:34.024Z,23.77
2023-02-21T04:12:37.270Z,23.52
2023-02-21T04:15:40.305Z,27.02
2023-02-21T04:18:45.557Z,18.60
2023-02-21T04:21:50.624Z,20.73
2023-02-21T04:24:53.752Z,20.50
2023-02-21T04:27:58.996Z,21.60
2023-02-21T04:31:05.346Z,21.33
2023-02-21T04:34:12.055Z,24.37
2023-02-21T04:37:19.089Z,21.60
2023-02-21T04:40:23.079Z,21.23
2023-02-21T04:43:27.973Z,19.70
2023-02-21T04:46:31.212Z,17.45
2023-02-21T04:49:34.363Z,16.50
2023-02-21T04:52:37.460Z,15.93
2023-02-21T04:55:40.547Z,21.38
2023-02-21T04:58:45.707Z,20.05
2023-02-21T05:01:49.054Z,21.88
2023-02-21T05:04:52.103Z,22.23
2023-02-21T05:07:57.350Z,17.10
2023-02-21T05:11:00.442Z,16.73
2023-02-21T05:14:04.125Z,17.38
2023-02-21T05:17:07.604Z,15.90
2023-02-21T05:20:12.294Z,16.37
2023-02-21T05:23:17.218Z,18.10
2023-02-21T05:26:20.110Z,17.90
2023-02-21T05:29:26.561Z,17.33
2023-02-21T05:32:31.979Z,15.45
2023-02-21T05:35:34.869Z,15.00
2023-02-21T05:38:52.603Z,14.07
2023-02-21T05:41:55.543Z,18.42
2023-02-21T05:44:58.630Z,16.50
2023-02-21T05:48:02.608Z,15.00
2023-02-21T05:51:05.856Z,16.77
2023-02-21T05:54:10.656Z,15.10
2023-02-21T05:57:13.542Z,15.32
2023-02-21T06:00:24.122Z,16.40
2023-02-21T06:03:27.121Z,16.60
2023-02-21T06:06:30.036Z,13.60
2023-02-21T06:09:33.281Z,17.33
2023-02-21T06:12:36.572Z,15.60
2023-02-21T06:15:39.581Z,15.70
2023-02-21T06:18:42.827Z,15.95
2023-02-21T06:21:46.827Z,13.73
2023-02-21T06:24:51.815Z,12.93
2023-02-21T06:27:55.394Z,16.33
2023-02-21T06:30:59.523Z,15.10
2023-02-21T06:34:02.737Z,15.27
2023-02-21T06:37:07.122Z,19.23
2023-02-21T06:40:10.695Z,14.07
2023-02-21T06:43:14.571Z,12.88
2023-02-21T06:46:20.535Z,14.43
2023-02-21T06:49:23.613Z,13.23
2023-02-21T06:57:19.016Z,15.03
2023-02-21T07:00:23.708Z,20.08
2023-02-21T07:03:29.577Z,21.50
2023-02-21T07:06:33.771Z,17.10
2023-02-21T07:09:46.871Z,17.13
2023-02-21T07:12:52.388Z,12.80
2023-02-21T07:15:55.617Z,14.35
2023-02-21T07:18:59.036Z,25.38
2023-02-21T07:22:14.088Z,13.13
2023-02-21T07:25:22.585Z,13.93
2023-02-21T07:28:29.551Z,13.77
2023-02-21T07:31:32.955Z,11.13
2023-02-21T07:34:37.462Z,13.05
2023-02-21T07:37:41.255Z,11.45
2023-02-21T07:40:44.434Z,11.73
2023-02-21T07:43:54.177Z,10.43
2023-02-21T07:46:57.897Z,9.90
2023-02-21T07:50:03.823Z,9.77
2023-02-21T07:53:08.644Z,11.45
2023-02-21T07:56:15.382Z,9.60
2023-02-21T07:59:25.236Z,8.87
2023-02-21T08:02:29.445Z,7.97
2023-02-21T08:05:33.760Z,9.43
2023-02-21T08:08:38.853Z,10.48
2023-02-21T08:11:49.677Z,9.77
2023-02-21T08:14:55.591Z,7.53
2023-02-21T08:18:01.451Z,6.65
2023-02-21T08:21:08.426Z,5.20
2023-02-21T08:24:15.157Z,4.18
2023-02-21T08:27:29.148Z,5.80
2023-02-21T08:30:32.326Z,5.83
2023-02-21T08:33:35.919Z,3.70
2023-02-21T08:36:42.617Z,2.15
2023-02-21T08:39:53.121Z,4.15
2023-02-21T08:42:57.623Z,2.92
2023-02-21T08:46:01.368Z,3.93
2023-02-21T08:49:13.219Z,3.03
2023-02-21T08:52:18.278Z,2.95
2023-02-21T08:55:22.544Z,12.30
2023-02-21T08:58:26.168Z,2.30
2023-02-21T09:01:35.820Z,2.00
2023-02-21T09:04:39.595Z,1.85
2023-02-21T09:07:43.221Z,2.10
2023-02-21T09:10:48.031Z,4.47
2023-02-21T09:13:53.317Z,2.03
2023-02-21T09:16:56.706Z,1.50
2023-02-21T09:20:05.326Z,10.30
2023-02-21T09:23:12.568Z,8.45
2023-02-21T09:26:15.788Z,2.08
2023-02-21T09:29:19.874Z,2.67
2023-02-21T09:32:25.036Z,2.13
2023-02-21T09:35:31.177Z,2.30
2023-02-21T09:38:34.752Z,4.03
2023-02-21T09:41:39.612Z,1.27
2023-02-21T09:44:43.251Z,1.85
2023-02-21T09:47:51.607Z,7.70
2023-02-21T09:50:59.143Z,2.08
2023-02-21T09:54:04.256Z,1.73
2023-02-21T09:57:17.846Z,1.33
2023-02-21T10:00:36.068Z,9.30
2023-02-21T10:03:54.615Z,4.80
2023-02-21T10:07:05.524Z,1.45
2023-02-21T10:10:22.471Z,2.30
2023-02-21T10:13:41.885Z,2.85
2023-02-21T10:17:07.316Z,1.92
2023-02-21T10:20:30.237Z,3.40
2023-02-21T10:23:49.763Z,1.23
2023-02-21T10:27:06.440Z,1.75
2023-02-21T10:30:18.101Z,1.83
2023-02-21T10:33:31.957Z,1.40
2023-02-21T10:36:35.772Z,3.77
2023-02-21T10:39:47.267Z,2.47
2023-02-21T10:42:54.655Z,1.55
2023-02-21T10:46:16.683Z,3.03
2023-02-21T10:49:34.878Z,2.65
2023-02-21T10:52:54.405Z,2.80
2023-02-21T10:56:20.500Z,3.53
2023-02-21T10:59:45.809Z,5.18
2023-02-21T11:02:55.457Z,1.67
2023-02-21T11:05:59.326Z,2.38
2023-02-21T11:09:31.084Z,1.70
2023-02-21T11:12:40.381Z,2.20
2023-02-21T11:15:47.834Z,2.25
2023-02-21T11:19:06.385Z,3.05
2023-02-21T11:22:09.988Z,2.45
2023-02-21T11:25:29.819Z,2.70
2023-02-21T11:28:47.695Z,2.55
2023-02-21T11:31:52.875Z,2.50
2023-02-21T11:35:24.234Z,5.07
2023-02-21T11:38:38.709Z,9.40
2023-02-21T11:41:57.704Z,2.23
2023-02-21T11:45:13.168Z,2.38
2023-02-21T11:48:20.310Z,3.03
2023-02-21T11:51:30.057Z,3.67
2023-02-21T11:54:34.041Z,3.20
2023-02-21T11:58:02.534Z,2.30
2023-02-21T12:01:50.478Z,3.55
2023-02-21T12:05:16.571Z,4.28
2023-02-21T12:08:35.324Z,6.72
2023-02-21T12:11:46.223Z,5.13
2023-02-21T12:15:39.482Z,3.43
2023-02-21T12:19:21.866Z,5.05
2023-02-21T12:22:42.781Z,8.15
2023-02-21T12:25:55.037Z,4.55
2023-02-21T12:29:42.558Z,3.05
2023-02-21T12:33:26.088Z,3.73
2023-02-21T12:37:10.892Z,3.30
2023-02-21T12:40:25.230Z,1.60
2023-02-21T12:43:48.940Z,2.45
2023-02-21T12:47:01.668Z,4.65
2023-02-21T12:50:32.292Z,2.03
2023-02-21T12:53:59.068Z,2.63
2023-02-21T12:57:08.686Z,1.75
2023-02-21T13:00:28.266Z,2.95
2023-02-21T13:03:37.208Z,1.15
2023-02-21T13:07:07.454Z,2.00
2023-02-21T13:10:57.314Z,1.58
2023-02-21T13:14:01.135Z,4.32
2023-02-21T13:17:04.360Z,1.52
2023-02-21T13:20:18.189Z,1.27
2023-02-21T13:24:00.695Z,5.07
2023-02-21T13:27:50.320Z,4.05
2023-02-21T13:31:03.852Z,2.85
2023-02-21T13:34:11.535Z,2.72
2023-02-21T13:37:25.178Z,1.52
2023-02-21T13:40:52.585Z,3.43
2023-02-21T13:44:05.184Z,2.30
2023-02-21T13:47:18.949Z,5.00
2023-02-21T13:50:37.597Z,4.30
2023-02-21T13:54:23.071Z,7.60
2023-02-21T13:57:34.969Z,2.73
2023-02-21T14:00:39.285Z,1.58
2023-02-21T14:03:45.659Z,1.40
2023-02-21T14:06:57.312Z,1.75
2023-02-21T14:10:02.891Z,2.00
2023-02-21T14:13:19.911Z,1.90
2023-02-21T14:16:47.968Z,2.83
2023-02-21T14:19:55.337Z,8.30
2023-02-21T14:23:01.085Z,3.58
2023-02-21T14:26:06.794Z,2.88
2023-02-21T14:29:13.843Z,3.43
2023-02-21T14:32:35.277Z,3.75
2023-02-21T14:35:49.191Z,7.13
2023-02-21T14:38:54.116Z,4.55
2023-02-21T14:41:57.118Z,5.60
2023-02-21T14:45:12.120Z,4.93
2023-02-21T14:48:35.738Z,3.47
2023-02-21T14:52:16.336Z,5.45
2023-02-21T14:55:38.120Z,7.65
2023-02-21T14:58:53.487Z,3.95
2023-02-21T15:01:59.278Z,9.00
2023-02-21T15:05:36.356Z,4.03
2023-02-21T15:08:45.600Z,8.77
2023-02-21T15:11:49.271Z,20.98
2023-02-21T15:14:53.622Z,32.67
2023-02-21T15:18:03.444Z,50.77
2023-02-21T15:21:17.037Z,75.55
2023-02-21T15:24:20.148Z,84.50
2023-02-21T15:27:23.182Z,59.70
2023-02-21T15:30:42.095Z,46.53
2023-02-21T15:33:45.332Z,31.90
2023-02-21T15:37:13.540Z,48.45
2023-02-21T15:40:23.486Z,27.60
2023-02-21T15:43:39.683Z,34.50
2023-02-21T15:47:08.484Z,44.67
2023-02-21T15:50:43.890Z,138.87
2023-02-21T15:54:17.917Z,113.07
2023-02-21T15:57:24.925Z,111.55
2023-02-21T16:00:38.724Z,71.85
2023-02-21T16:03:47.171Z,111.63
2023-02-21T16:06:56.043Z,94.83
2023-02-21T16:10:06.112Z,102.70
2023-02-21T16:13:15.355Z,65.43
2023-02-21T16:16:21.151Z,51.42
2023-02-21T16:19:25.036Z,44.85
2023-02-21T16:23:06.337Z,32.13
2023-02-21T16:26:07.150Z,46.28
2023-02-21T16:29:10.132Z,35.90
2023-02-21T16:32:19.913Z,54.00
2023-02-21T16:35:25.211Z,47.83
2023-02-21T16:38:28.010Z,37.37
2023-02-21T16:41:31.556Z,24.77
2023-02-21T16:44:34.633Z,32.78
2023-02-21T16:47:37.606Z,53.17
2023-02-21T16:50:41.185Z,46.97
2023-02-21T16:53:46.334Z,17.77
2023-02-21T16:56:51.970Z,23.67
2023-02-21T16:59:54.971Z,14.18
2023-02-21T17:02:58.169Z,12.13
2023-02-21T17:06:01.734Z,11.98
2023-02-21T17:09:04.638Z,13.50
2023-02-21T17:12:08.478Z,16.25
2023-02-21T17:15:12.009Z,10.65
2023-02-21T17:18:17.620Z,10.40
2023-02-21T17:21:21.817Z,10.70
2023-02-21T17:24:25.505Z,22.77
2023-02-21T17:27:28.633Z,24.35
2023-02-21T17:30:35.161Z,20.55
2023-02-21T17:33:38.782Z,21.15
2023-02-21T17:36:42.083Z,25.35
2023-02-21T17:39:45.460Z,16.60
2023-02-21T17:42:48.546Z,14.73
2023-02-21T17:45:51.844Z,15.95
2023-02-21T17:48:54.768Z,21.00
2023-02-21T17:51:57.952Z,19.60
2023-02-21T17:55:08.163Z,26.37
2023-02-21T17:58:14.275Z,22.70
2023-02-21T18:01:19.888Z,19.17
2023-02-21T18:04:24.922Z,23.35
2023-02-21T18:07:32.180Z,27.33
2023-02-21T18:10:35.473Z,27.53
2023-02-21T18:13:38.970Z,26.85
2023-02-21T18:16:42.471Z,24.17
2023-02-21T18:19:45.883Z,23.23
2023-02-21T18:22:49.013Z,30.40
2023-02-21T18:25:53.425Z,20.80
2023-02-21T18:28:57.225Z,17.08
2023-02-21T18:32:00.785Z,14.40
2023-02-21T18:35:04.245Z,14.32
2023-02-21T18:38:07.434Z,10.23
2023-02-21T18:41:16.275Z,8.03
2023-02-21T18:44:20.138Z,10.27
2023-02-21T18:47:26.353Z,11.13
2023-02-21T18:50:29.815Z,10.60
2023-02-21T18:53:33.223Z,13.27
2023-02-21T18:56:36.508Z,15.63
2023-02-21T18:59:39.812Z,15.45
2023-02-21T19:02:43.067Z,22.42
2023-02-21T19:05:46.741Z,15.20
2023-02-21T19:08:54.351Z,17.20
2023-02-21T19:11:58.947Z,17.30
2023-02-21T19:15:02.659Z,17.92
2023-02-21T19:18:06.382Z,16.77
2023-02-21T19:21:12.823Z,15.45
2023-02-21T19:24:16.041Z,11.27
2023-02-21T19:27:19.467Z,12.47
2023-02-21T19:30:25.937Z,10.50
2023-02-21T19:33:29.148Z,9.23
2023-02-21T19:36:32.339Z,11.00
2023-02-21T19:39:37.033Z,31.13
2023-02-21T19:42:41.073Z,18.23
2023-02-21T19:45:45.058Z,20.02
2023-02-21T19:48:51.758Z,22.60
2023-02-21T19:51:57.704Z,16.30
2023-02-21T19:55:00.859Z,16.43
2023-02-21T19:58:08.568Z,20.77
2023-02-21T20:01:11.696Z,15.48
2023-02-21T20:04:18.574Z,14.27
2023-02-21T20:07:22.230Z,15.70
2023-02-21T20:10:25.787Z,12.67
2023-02-21T20:13:29.023Z,16.70
2023-02-21T20:16:38.253Z,11.68
2023-02-21T20:19:42.018Z,9.07
2023-02-21T20:22:45.235Z,11.15
2023-02-21T20:25:50.397Z,13.40
2023-02-21T20:28:55.943Z,57.03
2023-02-21T20:32:00.120Z,11.93
2023-02-21T20:35:04.654Z,10.48
2023-02-21T20:38:09.511Z,13.68
2023-02-21T20:41:14.154Z,5.67
2023-02-21T20:44:17.447Z,8.90
2023-02-21T20:47:20.852Z,4.38
2023-02-21T20:50:30.489Z,6.63
2023-02-21T20:53:36.816Z,6.95
2023-02-21T20:56:41.931Z,5.37
2023-02-21T20:59:46.433Z,3.50
2023-02-21T21:02:51.383Z,5.32
2023-02-21T21:05:54.642Z,6.18
2023-02-21T21:09:01.836Z,3.80
2023-02-21T21:12:12.125Z,4.37
2023-02-21T21:15:19.655Z,6.10
2023-02-21T21:18:22.857Z,4.03
2023-02-21T21:21:33.398Z,3.90
2023-02-21T21:24:38.555Z,3.30
2023-02-21T21:27:42.554Z,3.03
2023-02-21T21:30:47.031Z,3.10
2023-02-21T21:33:50.141Z,3.40
2023-02-21T21:36:56.246Z,4.00
2023-02-21T21:39:59.492Z,3.60
2023-02-21T21:43:06.888Z,3.70
2023-02-21T21:46:11.612Z,4.03
2023-02-21T21:49:18.154Z,2.50
2023-02-21T21:52:23.885Z,3.88
2023-02-21T21:55:30.145Z,3.95
2023-02-21T21:58:34.956Z,3.43
2023-02-21T22:01:41.280Z,3.30
2023-02-21T22:04:44.853Z,3.13
2023-02-21T22:07:49.215Z,4.50
2023-02-21T22:10:53.301Z,3.33
2023-02-21T22:13:57.357Z,4.20
2023-02-21T22:17:00.392Z,2.83
2023-02-21T22:20:17.089Z,2.97
2023-02-21T22:23:21.431Z,3.97
2023-02-21T22:26:26.355Z,3.70
2023-02-21T22:29:29.280Z,3.37
2023-02-21T22:32:32.389Z,2.63
2023-02-21T22:35:35.499Z,2.65
2023-02-21T22:38:40.632Z,2.53
2023-02-21T22:41:43.699Z,2.22
2023-02-21T22:44:49.213Z,3.07
2023-02-21T22:47:55.742Z,2.53
2023-02-21T22:50:58.798Z,3.22
2023-02-21T22:54:02.671Z,2.17
2023-02-21T22:57:05.568Z,3.38
2023-02-21T23:00:19.303Z,2.67
2023-02-21T23:03:23.181Z,2.83
2023-02-21T23:06:26.327Z,2.67
2023-02-21T23:09:30.831Z,2.65
2023-02-21T23:12:33.804Z,3.35
2023-02-21T23:15:37.259Z,3.53
2023-02-21T23:18:40.381Z,3.57
2023-02-21T23:21:48.221Z,3.08
2023-02-21T23:24:53.504Z,3.47
2023-02-21T23:27:58.015Z,4.82
2023-02-21T23:31:07.144Z,2.40
2023-02-21T23:34:12.110Z,2.47
2023-02-21T23:37:17.805Z,2.55
2023-02-21T23:40:25.048Z,2.38
2023-02-21T23:43:30.498Z,2.83
2023-02-21T23:46:33.700Z,2.87
2023-02-21T23:49:44.215Z,5.00
2023-02-21T23:52:49.169Z,3.55
2023-02-21T23:56:00.838Z,3.28
2023-02-21T23:59:06.140Z,3.03
